sensor_id;sensor_type;location;lat;lon;timestamp;temperature;humidity
17080;DHT22;8655;57.106;-2.088;2024-01-11T00:01:59;14.30;58.80
17080;DHT22;8655;57.106;-2.088;2024-01-11T00:04:24;14.30;58.70
17080;DHT22;8655;57.106;-2.088;2024-01-11T00:06:51;14.30;58.70
17080;DHT22;8655;57.106;-2.088;2024-01-11T00:09:17;14.30;58.70
17080;DHT22;8655;57.106;-2.088;2024-01-11T00:11:43;14.30;58.70
17080;DHT22;8655;57.106;-2.088;2024-01-11T00:14:09;14.30;58.70
17080;DHT22;8655;57.106;-2.088;2024-01-11T00:16:34;14.30;58.70
17080;DHT22;8655;57.106;-2.088;2024-01-11T00:19:00;14.30;58.70
17080;DHT22;8655;57.106;-2.088;2024-01-11T00:21:26;14.20;58.60
17080;DHT22;8655;57.106;-2.088;2024-01-11T00:23:52;14.20;58.60
17080;DHT22;8655;57.106;-2.088;2024-01-11T00:26:17;14.20;58.60
17080;DHT22;8655;57.106;-2.088;2024-01-11T00:28:43;14.20;58.60
17080;DHT22;8655;57.106;-2.088;2024-01-11T00:31:09;14.20;58.60
17080;DHT22;8655;57.106;-2.088;2024-01-11T00:33:34;14.20;58.60
17080;DHT22;8655;57.106;-2.088;2024-01-11T00:36:00;14.20;58.60
17080;DHT22;8655;57.106;-2.088;2024-01-11T00:38:26;14.20;58.50
17080;DHT22;8655;57.106;-2.088;2024-01-11T00:40:51;14.20;58.60
17080;DHT22;8655;57.106;-2.088;2024-01-11T00:43:17;14.20;58.50
17080;DHT22;8655;57.106;-2.088;2024-01-11T00:45:44;14.10;58.50
17080;DHT22;8655;57.106;-2.088;2024-01-11T00:48:11;14.10;58.50
17080;DHT22;8655;57.106;-2.088;2024-01-11T00:50:37;14.10;58.40
17080;DHT22;8655;57.106;-2.088;2024-01-11T00:53:03;14.10;58.40
17080;DHT22;8655;57.106;-2.088;2024-01-11T00:55:29;14.10;58.40
17080;DHT22;8655;57.106;-2.088;2024-01-11T00:57:55;14.10;58.40
17080;DHT22;8655;57.106;-2.088;2024-01-11T01:00:20;14.10;58.50
17080;DHT22;8655;57.106;-2.088;2024-01-11T01:02:46;14.10;58.40
17080;DHT22;8655;57.106;-2.088;2024-01-11T01:05:12;14.10;58.40
17080;DHT22;8655;57.106;-2.088;2024-01-11T01:07:38;14.10;58.40
17080;DHT22;8655;57.106;-2.088;2024-01-11T01:10:04;14.00;58.30
17080;DHT22;8655;57.106;-2.088;2024-01-11T01:12:29;14.10;58.40
17080;DHT22;8655;57.106;-2.088;2024-01-11T01:14:55;14.10;58.40
17080;DHT22;8655;57.106;-2.088;2024-01-11T01:17:22;14.10;58.40
17080;DHT22;8655;57.106;-2.088;2024-01-11T01:19:47;14.10;58.40
17080;DHT22;8655;57.106;-2.088;2024-01-11T01:22:13;14.00;58.30
17080;DHT22;8655;57.106;-2.088;2024-01-11T01:24:39;14.00;58.30
17080;DHT22;8655;57.106;-2.088;2024-01-11T01:27:05;14.00;58.30
17080;DHT22;8655;57.106;-2.088;2024-01-11T01:29:30;14.00;58.30
17080;DHT22;8655;57.106;-2.088;2024-01-11T01:31:56;14.00;58.30
17080;DHT22;8655;57.106;-2.088;2024-01-11T01:34:22;14.00;58.30
17080;DHT22;8655;57.106;-2.088;2024-01-11T01:36:47;14.00;58.30
17080;DHT22;8655;57.106;-2.088;2024-01-11T01:39:13;13.90;58.20
17080;DHT22;8655;57.106;-2.088;2024-01-11T01:41:39;13.90;58.20
17080;DHT22;8655;57.106;-2.088;2024-01-11T01:44:04;14.00;58.30
17080;DHT22;8655;57.106;-2.088;2024-01-11T01:46:30;14.00;58.30
17080;DHT22;8655;57.106;-2.088;2024-01-11T01:48:57;13.90;58.20
17080;DHT22;8655;57.106;-2.088;2024-01-11T01:51:24;13.90;58.20
17080;DHT22;8655;57.106;-2.088;2024-01-11T01:53:53;13.90;58.20
17080;DHT22;8655;57.106;-2.088;2024-01-11T01:56:20;13.90;58.20
17080;DHT22;8655;57.106;-2.088;2024-01-11T01:58:47;13.90;58.20
17080;DHT22;8655;57.106;-2.088;2024-01-11T02:01:15;13.90;58.20
17080;DHT22;8655;57.106;-2.088;2024-01-11T02:03:41;13.90;58.20
17080;DHT22;8655;57.106;-2.088;2024-01-11T02:06:07;13.90;58.10
17080;DHT22;8655;57.106;-2.088;2024-01-11T02:08:34;13.90;58.10
17080;DHT22;8655;57.106;-2.088;2024-01-11T02:11:00;13.90;58.20
17080;DHT22;8655;57.106;-2.088;2024-01-11T02:13:26;13.90;58.20
17080;DHT22;8655;57.106;-2.088;2024-01-11T02:15:52;13.90;58.20
17080;DHT22;8655;57.106;-2.088;2024-01-11T02:18:17;13.90;58.10
17080;DHT22;8655;57.106;-2.088;2024-01-11T02:20:43;13.90;58.10
17080;DHT22;8655;57.106;-2.088;2024-01-11T02:23:20;13.80;58.10
17080;DHT22;8655;57.106;-2.088;2024-01-11T02:25:46;13.80;58.10
17080;DHT22;8655;57.106;-2.088;2024-01-11T02:28:11;13.80;58.10
17080;DHT22;8655;57.106;-2.088;2024-01-11T02:30:37;13.80;58.10
17080;DHT22;8655;57.106;-2.088;2024-01-11T02:33:04;13.80;58.10
17080;DHT22;8655;57.106;-2.088;2024-01-11T02:35:31;13.80;58.10
17080;DHT22;8655;57.106;-2.088;2024-01-11T02:37:57;13.80;58.10
17080;DHT22;8655;57.106;-2.088;2024-01-11T02:40:24;13.80;58.10
17080;DHT22;8655;57.106;-2.088;2024-01-11T02:42:51;13.80;58.10
17080;DHT22;8655;57.106;-2.088;2024-01-11T02:45:16;13.80;58.10
17080;DHT22;8655;57.106;-2.088;2024-01-11T02:47:42;13.80;58.10
17080;DHT22;8655;57.106;-2.088;2024-01-11T02:50:08;13.80;58.10
17080;DHT22;8655;57.106;-2.088;2024-01-11T02:52:34;13.80;58.10
17080;DHT22;8655;57.106;-2.088;2024-01-11T02:55:00;13.80;58.00
17080;DHT22;8655;57.106;-2.088;2024-01-11T02:57:26;13.70;58.00
17080;DHT22;8655;57.106;-2.088;2024-01-11T02:59:51;13.70;58.00
17080;DHT22;8655;57.106;-2.088;2024-01-11T03:02:17;13.70;58.00
17080;DHT22;8655;57.106;-2.088;2024-01-11T03:04:43;13.70;58.00
17080;DHT22;8655;57.106;-2.088;2024-01-11T03:07:08;13.70;58.00
17080;DHT22;8655;57.106;-2.088;2024-01-11T03:09:34;13.70;58.00
17080;DHT22;8655;57.106;-2.088;2024-01-11T03:12:00;13.70;58.00
17080;DHT22;8655;57.106;-2.088;2024-01-11T03:14:26;13.70;58.00
17080;DHT22;8655;57.106;-2.088;2024-01-11T03:16:51;13.70;58.00
17080;DHT22;8655;57.106;-2.088;2024-01-11T03:19:17;13.70;58.00
17080;DHT22;8655;57.106;-2.088;2024-01-11T03:21:46;13.70;58.00
17080;DHT22;8655;57.106;-2.088;2024-01-11T03:24:13;13.70;58.60
17080;DHT22;8655;57.106;-2.088;2024-01-11T03:26:40;13.70;58.00
17080;DHT22;8655;57.106;-2.088;2024-01-11T03:29:05;13.70;58.00
17080;DHT22;8655;57.106;-2.088;2024-01-11T03:31:31;13.70;58.00
17080;DHT22;8655;57.106;-2.088;2024-01-11T03:33:57;13.60;57.90
17080;DHT22;8655;57.106;-2.088;2024-01-11T03:36:23;13.60;57.90
17080;DHT22;8655;57.106;-2.088;2024-01-11T03:38:50;13.60;57.90
17080;DHT22;8655;57.106;-2.088;2024-01-11T03:41:16;13.60;57.90
17080;DHT22;8655;57.106;-2.088;2024-01-11T03:43:42;13.60;57.90
17080;DHT22;8655;57.106;-2.088;2024-01-11T03:46:07;13.60;57.90
17080;DHT22;8655;57.106;-2.088;2024-01-11T03:48:33;13.60;57.90
17080;DHT22;8655;57.106;-2.088;2024-01-11T03:51:01;13.60;57.90
17080;DHT22;8655;57.106;-2.088;2024-01-11T03:53:27;13.60;57.90
17080;DHT22;8655;57.106;-2.088;2024-01-11T03:55:53;13.60;57.90
17080;DHT22;8655;57.106;-2.088;2024-01-11T03:58:19;13.60;57.90
17080;DHT22;8655;57.106;-2.088;2024-01-11T04:00:44;13.60;57.90
17080;DHT22;8655;57.106;-2.088;2024-01-11T04:03:10;13.60;57.90
17080;DHT22;8655;57.106;-2.088;2024-01-11T04:05:36;13.60;57.90
17080;DHT22;8655;57.106;-2.088;2024-01-11T04:08:05;13.50;57.80
17080;DHT22;8655;57.106;-2.088;2024-01-11T04:10:32;13.50;57.80
17080;DHT22;8655;57.106;-2.088;2024-01-11T04:12:59;13.50;57.80
17080;DHT22;8655;57.106;-2.088;2024-01-11T04:15:25;13.50;57.80
17080;DHT22;8655;57.106;-2.088;2024-01-11T04:17:51;13.50;57.80
17080;DHT22;8655;57.106;-2.088;2024-01-11T04:20:17;13.50;57.80
17080;DHT22;8655;57.106;-2.088;2024-01-11T04:22:43;13.50;57.80
17080;DHT22;8655;57.106;-2.088;2024-01-11T04:25:08;13.50;57.80
17080;DHT22;8655;57.106;-2.088;2024-01-11T04:27:34;13.50;57.80
17080;DHT22;8655;57.106;-2.088;2024-01-11T04:30:00;13.50;57.80
17080;DHT22;8655;57.106;-2.088;2024-01-11T04:32:25;13.50;57.80
17080;DHT22;8655;57.106;-2.088;2024-01-11T04:34:51;13.50;57.80
17080;DHT22;8655;57.106;-2.088;2024-01-11T04:37:17;13.50;57.80
17080;DHT22;8655;57.106;-2.088;2024-01-11T04:39:43;13.40;57.70
17080;DHT22;8655;57.106;-2.088;2024-01-11T04:42:09;13.50;57.80
17080;DHT22;8655;57.106;-2.088;2024-01-11T04:44:35;13.50;57.80
17080;DHT22;8655;57.106;-2.088;2024-01-11T04:47:01;13.40;57.70
17080;DHT22;8655;57.106;-2.088;2024-01-11T04:49:27;13.40;57.70
17080;DHT22;8655;57.106;-2.088;2024-01-11T04:51:52;13.40;57.70
17080;DHT22;8655;57.106;-2.088;2024-01-11T04:54:18;13.40;57.80
17080;DHT22;8655;57.106;-2.088;2024-01-11T04:56:44;13.40;57.70
17080;DHT22;8655;57.106;-2.088;2024-01-11T04:59:10;13.40;57.70
17080;DHT22;8655;57.106;-2.088;2024-01-11T05:01:35;13.40;57.70
17080;DHT22;8655;57.106;-2.088;2024-01-11T05:04:01;13.40;57.70
17080;DHT22;8655;57.106;-2.088;2024-01-11T05:06:27;13.40;57.70
17080;DHT22;8655;57.106;-2.088;2024-01-11T05:08:52;13.40;57.70
17080;DHT22;8655;57.106;-2.088;2024-01-11T05:11:20;13.40;57.70
17080;DHT22;8655;57.106;-2.088;2024-01-11T05:13:46;13.40;57.70
17080;DHT22;8655;57.106;-2.088;2024-01-11T05:16:20;13.40;57.70
17080;DHT22;8655;57.106;-2.088;2024-01-11T05:18:46;13.40;57.70
17080;DHT22;8655;57.106;-2.088;2024-01-11T05:21:12;13.40;57.70
17080;DHT22;8655;57.106;-2.088;2024-01-11T05:23:38;13.40;57.70
17080;DHT22;8655;57.106;-2.088;2024-01-11T05:26:05;13.40;57.70
17080;DHT22;8655;57.106;-2.088;2024-01-11T05:28:31;13.30;57.60
17080;DHT22;8655;57.106;-2.088;2024-01-11T05:30:57;13.30;57.60
17080;DHT22;8655;57.106;-2.088;2024-01-11T05:33:22;13.30;57.60
17080;DHT22;8655;57.106;-2.088;2024-01-11T05:35:48;13.30;57.60
17080;DHT22;8655;57.106;-2.088;2024-01-11T05:38:14;13.30;57.60
17080;DHT22;8655;57.106;-2.088;2024-01-11T05:40:39;13.30;57.60
17080;DHT22;8655;57.106;-2.088;2024-01-11T05:43:05;13.30;57.60
17080;DHT22;8655;57.106;-2.088;2024-01-11T05:45:31;13.30;57.60
17080;DHT22;8655;57.106;-2.088;2024-01-11T05:47:59;13.30;57.60
17080;DHT22;8655;57.106;-2.088;2024-01-11T05:50:25;13.30;58.20
17080;DHT22;8655;57.106;-2.088;2024-01-11T05:52:52;13.30;57.60
17080;DHT22;8655;57.106;-2.088;2024-01-11T05:55:19;13.30;57.60
17080;DHT22;8655;57.106;-2.088;2024-01-11T05:57:45;13.30;57.60
17080;DHT22;8655;57.106;-2.088;2024-01-11T06:00:11;13.30;57.60
17080;DHT22;8655;57.106;-2.088;2024-01-11T06:02:37;13.30;57.60
17080;DHT22;8655;57.106;-2.088;2024-01-11T06:05:03;13.30;57.60
17080;DHT22;8655;57.106;-2.088;2024-01-11T06:07:29;13.30;57.70
17080;DHT22;8655;57.106;-2.088;2024-01-11T06:09:54;13.30;57.60
17080;DHT22;8655;57.106;-2.088;2024-01-11T06:12:20;13.30;57.60
17080;DHT22;8655;57.106;-2.088;2024-01-11T06:14:46;13.20;57.60
17080;DHT22;8655;57.106;-2.088;2024-01-11T06:17:12;13.20;57.60
17080;DHT22;8655;57.106;-2.088;2024-01-11T06:19:38;13.20;57.60
17080;DHT22;8655;57.106;-2.088;2024-01-11T06:22:04;13.20;57.60
17080;DHT22;8655;57.106;-2.088;2024-01-11T06:24:31;13.20;57.60
17080;DHT22;8655;57.106;-2.088;2024-01-11T06:26:57;13.20;57.60
17080;DHT22;8655;57.106;-2.088;2024-01-11T06:29:22;13.20;57.60
17080;DHT22;8655;57.106;-2.088;2024-01-11T06:31:48;13.20;57.60
17080;DHT22;8655;57.106;-2.088;2024-01-11T06:34:14;13.20;57.60
17080;DHT22;8655;57.106;-2.088;2024-01-11T06:36:39;13.10;57.50
17080;DHT22;8655;57.106;-2.088;2024-01-11T06:39:05;13.20;57.60
17080;DHT22;8655;57.106;-2.088;2024-01-11T06:41:31;13.20;57.60
17080;DHT22;8655;57.106;-2.088;2024-01-11T06:43:56;13.20;57.60
17080;DHT22;8655;57.106;-2.088;2024-01-11T06:46:23;13.20;57.60
17080;DHT22;8655;57.106;-2.088;2024-01-11T06:48:48;13.20;57.60
17080;DHT22;8655;57.106;-2.088;2024-01-11T06:51:21;13.20;57.60
17080;DHT22;8655;57.106;-2.088;2024-01-11T06:53:47;13.20;57.70
17080;DHT22;8655;57.106;-2.088;2024-01-11T06:56:20;13.20;57.70
17080;DHT22;8655;57.106;-2.088;2024-01-11T06:58:46;13.20;57.70
17080;DHT22;8655;57.106;-2.088;2024-01-11T07:01:13;13.20;57.70
17080;DHT22;8655;57.106;-2.088;2024-01-11T07:03:39;13.20;57.80
17080;DHT22;8655;57.106;-2.088;2024-01-11T07:06:05;13.20;57.80
17080;DHT22;8655;57.106;-2.088;2024-01-11T07:08:31;13.20;57.80
17080;DHT22;8655;57.106;-2.088;2024-01-11T07:11:00;13.30;58.00
17080;DHT22;8655;57.106;-2.088;2024-01-11T07:13:28;13.30;58.00
17080;DHT22;8655;57.106;-2.088;2024-01-11T07:15:54;13.30;58.10
17080;DHT22;8655;57.106;-2.088;2024-01-11T07:18:21;13.30;58.10
17080;DHT22;8655;57.106;-2.088;2024-01-11T07:20:47;13.40;58.20
17080;DHT22;8655;57.106;-2.088;2024-01-11T07:23:14;13.40;58.20
17080;DHT22;8655;57.106;-2.088;2024-01-11T07:25:39;13.40;58.30
17080;DHT22;8655;57.106;-2.088;2024-01-11T07:28:06;13.50;58.40
17080;DHT22;8655;57.106;-2.088;2024-01-11T07:30:32;13.50;58.50
17080;DHT22;8655;57.106;-2.088;2024-01-11T07:32:58;13.60;58.70
17080;DHT22;8655;57.106;-2.088;2024-01-11T07:35:24;13.60;58.70
17080;DHT22;8655;57.106;-2.088;2024-01-11T07:37:50;13.60;58.70
17080;DHT22;8655;57.106;-2.088;2024-01-11T07:40:16;13.70;58.90
17080;DHT22;8655;57.106;-2.088;2024-01-11T07:42:42;13.70;58.90
17080;DHT22;8655;57.106;-2.088;2024-01-11T07:45:09;13.80;59.00
17080;DHT22;8655;57.106;-2.088;2024-01-11T07:47:36;13.80;59.00
17080;DHT22;8655;57.106;-2.088;2024-01-11T07:50:08;13.90;59.20
17080;DHT22;8655;57.106;-2.088;2024-01-11T07:52:37;13.90;59.20
17080;DHT22;8655;57.106;-2.088;2024-01-11T07:55:04;13.90;59.30
17080;DHT22;8655;57.106;-2.088;2024-01-11T07:57:34;14.00;59.50
17080;DHT22;8655;57.106;-2.088;2024-01-11T08:00:00;14.10;59.60
17080;DHT22;8655;57.106;-2.088;2024-01-11T08:02:26;14.10;59.60
17080;DHT22;8655;57.106;-2.088;2024-01-11T08:04:52;14.10;59.70
17080;DHT22;8655;57.106;-2.088;2024-01-11T08:07:17;14.20;59.80
17080;DHT22;8655;57.106;-2.088;2024-01-11T08:09:43;14.20;59.80
17080;DHT22;8655;57.106;-2.088;2024-01-11T08:12:12;14.30;60.00
17080;DHT22;8655;57.106;-2.088;2024-01-11T08:14:39;14.30;60.00
17080;DHT22;8655;57.106;-2.088;2024-01-11T08:17:05;14.40;60.10
17080;DHT22;8655;57.106;-2.088;2024-01-11T08:19:31;14.40;60.10
17080;DHT22;8655;57.106;-2.088;2024-01-11T08:21:58;14.40;60.20
17080;DHT22;8655;57.106;-2.088;2024-01-11T08:24:23;14.50;60.30
17080;DHT22;8655;57.106;-2.088;2024-01-11T08:26:50;14.60;60.40
17080;DHT22;8655;57.106;-2.088;2024-01-11T08:29:16;14.60;60.50
17080;DHT22;8655;57.106;-2.088;2024-01-11T08:31:44;14.60;60.50
17080;DHT22;8655;57.106;-2.088;2024-01-11T08:34:10;14.60;60.60
17080;DHT22;8655;57.106;-2.088;2024-01-11T08:36:36;14.70;60.70
17080;DHT22;8655;57.106;-2.088;2024-01-11T08:39:04;14.80;60.90
17080;DHT22;8655;57.106;-2.088;2024-01-11T08:41:34;14.80;60.90
17080;DHT22;8655;57.106;-2.088;2024-01-11T08:44:03;14.90;61.00
17080;DHT22;8655;57.106;-2.088;2024-01-11T08:46:31;14.90;61.00
17080;DHT22;8655;57.106;-2.088;2024-01-11T08:48:59;14.90;61.00
17080;DHT22;8655;57.106;-2.088;2024-01-11T08:51:26;15.00;61.10
17080;DHT22;8655;57.106;-2.088;2024-01-11T08:53:52;15.00;61.10
17080;DHT22;8655;57.106;-2.088;2024-01-11T08:56:21;15.00;61.10
17080;DHT22;8655;57.106;-2.088;2024-01-11T08:58:47;15.10;61.30
17080;DHT22;8655;57.106;-2.088;2024-01-11T09:01:14;15.10;61.20
17080;DHT22;8655;57.106;-2.088;2024-01-11T09:03:40;15.10;61.30
17080;DHT22;8655;57.106;-2.088;2024-01-11T09:06:06;15.10;61.20
17080;DHT22;8655;57.106;-2.088;2024-01-11T09:08:32;15.20;61.40
17080;DHT22;8655;57.106;-2.088;2024-01-11T09:10:59;15.20;61.40
17080;DHT22;8655;57.106;-2.088;2024-01-11T09:13:25;15.20;61.40
17080;DHT22;8655;57.106;-2.088;2024-01-11T09:15:54;15.20;61.40
17080;DHT22;8655;57.106;-2.088;2024-01-11T09:18:20;15.30;61.40
17080;DHT22;8655;57.106;-2.088;2024-01-11T09:20:47;15.30;61.40
17080;DHT22;8655;57.106;-2.088;2024-01-11T09:23:13;15.30;61.40
17080;DHT22;8655;57.106;-2.088;2024-01-11T09:25:39;15.30;61.40
17080;DHT22;8655;57.106;-2.088;2024-01-11T09:28:05;15.30;61.40
17080;DHT22;8655;57.106;-2.088;2024-01-11T09:30:31;15.30;61.40
17080;DHT22;8655;57.106;-2.088;2024-01-11T09:32:57;15.30;61.40
17080;DHT22;8655;57.106;-2.088;2024-01-11T09:35:23;15.30;61.30
17080;DHT22;8655;57.106;-2.088;2024-01-11T09:37:49;15.30;61.30
17080;DHT22;8655;57.106;-2.088;2024-01-11T09:40:16;15.30;61.30
17080;DHT22;8655;57.106;-2.088;2024-01-11T09:42:42;15.30;61.30
17080;DHT22;8655;57.106;-2.088;2024-01-11T09:45:17;15.30;61.20
17080;DHT22;8655;57.106;-2.088;2024-01-11T09:47:44;15.30;61.20
17080;DHT22;8655;57.106;-2.088;2024-01-11T09:50:15;15.30;61.20
17080;DHT22;8655;57.106;-2.088;2024-01-11T09:52:46;15.30;61.10
17080;DHT22;8655;57.106;-2.088;2024-01-11T09:55:13;15.30;61.10
17080;DHT22;8655;57.106;-2.088;2024-01-11T09:57:41;15.30;61.10
17080;DHT22;8655;57.106;-2.088;2024-01-11T10:00:10;15.20;60.90
17080;DHT22;8655;57.106;-2.088;2024-01-11T10:02:38;15.20;60.90
17080;DHT22;8655;57.106;-2.088;2024-01-11T10:05:05;15.20;60.90
17080;DHT22;8655;57.106;-2.088;2024-01-11T10:07:32;15.20;60.90
17080;DHT22;8655;57.106;-2.088;2024-01-11T10:09:59;15.20;60.90
17080;DHT22;8655;57.106;-2.088;2024-01-11T10:12:27;15.20;60.80
17080;DHT22;8655;57.106;-2.088;2024-01-11T10:14:53;15.20;60.80
17080;DHT22;8655;57.106;-2.088;2024-01-11T10:17:19;15.20;60.70
17080;DHT22;8655;57.106;-2.088;2024-01-11T10:19:45;15.10;60.60
17080;DHT22;8655;57.106;-2.088;2024-01-11T10:22:11;15.10;60.60
17080;DHT22;8655;57.106;-2.088;2024-01-11T10:24:41;15.10;60.60
17080;DHT22;8655;57.106;-2.088;2024-01-11T10:27:08;15.10;60.50
17080;DHT22;8655;57.106;-2.088;2024-01-11T10:29:35;15.10;60.50
17080;DHT22;8655;57.106;-2.088;2024-01-11T10:32:04;15.10;60.40
17080;DHT22;8655;57.106;-2.088;2024-01-11T10:34:30;15.10;60.40
17080;DHT22;8655;57.106;-2.088;2024-01-11T10:36:56;15.00;60.30
17080;DHT22;8655;57.106;-2.088;2024-01-11T10:39:26;15.00;60.30
17080;DHT22;8655;57.106;-2.088;2024-01-11T10:42:08;15.00;60.20
17080;DHT22;8655;57.106;-2.088;2024-01-11T10:44:35;15.00;60.20
17080;DHT22;8655;57.106;-2.088;2024-01-11T10:47:03;14.90;60.10
17080;DHT22;8655;57.106;-2.088;2024-01-11T10:49:32;15.00;60.10
17080;DHT22;8655;57.106;-2.088;2024-01-11T10:52:01;14.90;60.00
17080;DHT22;8655;57.106;-2.088;2024-01-11T10:54:28;14.90;59.90
17080;DHT22;8655;57.106;-2.088;2024-01-11T10:56:56;14.90;59.90
17080;DHT22;8655;57.106;-2.088;2024-01-11T10:59:27;14.90;59.90
17080;DHT22;8655;57.106;-2.088;2024-01-11T11:01:53;14.90;59.90
17080;DHT22;8655;57.106;-2.088;2024-01-11T11:04:22;14.90;59.90
17080;DHT22;8655;57.106;-2.088;2024-01-11T11:06:55;14.80;59.80
17080;DHT22;8655;57.106;-2.088;2024-01-11T11:09:23;14.80;59.80
17080;DHT22;8655;57.106;-2.088;2024-01-11T11:11:49;14.80;59.80
17080;DHT22;8655;57.106;-2.088;2024-01-11T11:14:15;14.80;59.80
17080;DHT22;8655;57.106;-2.088;2024-01-11T11:16:44;14.80;59.80
17080;DHT22;8655;57.106;-2.088;2024-01-11T11:19:10;14.80;59.70
17080;DHT22;8655;57.106;-2.088;2024-01-11T11:21:44;14.80;59.70
17080;DHT22;8655;57.106;-2.088;2024-01-11T11:24:13;14.70;59.60
17080;DHT22;8655;57.106;-2.088;2024-01-11T11:26:39;14.90;59.80
17080;DHT22;8655;57.106;-2.088;2024-01-11T11:29:05;14.70;59.60
17080;DHT22;8655;57.106;-2.088;2024-01-11T11:31:35;14.70;59.60
17080;DHT22;8655;57.106;-2.088;2024-01-11T11:34:03;14.70;59.50
17080;DHT22;8655;57.106;-2.088;2024-01-11T11:36:30;14.70;59.60
17080;DHT22;8655;57.106;-2.088;2024-01-11T11:38:59;14.70;59.50
17080;DHT22;8655;57.106;-2.088;2024-01-11T11:41:35;14.60;59.40
17080;DHT22;8655;57.106;-2.088;2024-01-11T11:44:04;14.60;59.40
17080;DHT22;8655;57.106;-2.088;2024-01-11T11:46:31;14.60;59.40
17080;DHT22;8655;57.106;-2.088;2024-01-11T11:48:57;14.60;59.40
17080;DHT22;8655;57.106;-2.088;2024-01-11T11:51:24;14.60;59.40
17080;DHT22;8655;57.106;-2.088;2024-01-11T11:53:51;14.50;59.30
17080;DHT22;8655;57.106;-2.088;2024-01-11T11:56:18;14.50;59.20
17080;DHT22;8655;57.106;-2.088;2024-01-11T11:58:46;14.50;59.20
17080;DHT22;8655;57.106;-2.088;2024-01-11T12:01:13;14.50;59.20
17080;DHT22;8655;57.106;-2.088;2024-01-11T12:03:41;14.50;59.20
17080;DHT22;8655;57.106;-2.088;2024-01-11T12:06:08;14.50;59.20
17080;DHT22;8655;57.106;-2.088;2024-01-11T12:08:36;14.50;59.20
17080;DHT22;8655;57.106;-2.088;2024-01-11T12:11:02;14.50;59.20
17080;DHT22;8655;57.106;-2.088;2024-01-11T12:13:29;14.50;59.20
17080;DHT22;8655;57.106;-2.088;2024-01-11T12:15:56;14.50;59.20
17080;DHT22;8655;57.106;-2.088;2024-01-11T12:18:22;14.50;59.10
17080;DHT22;8655;57.106;-2.088;2024-01-11T12:20:48;14.40;59.00
17080;DHT22;8655;57.106;-2.088;2024-01-11T12:23:14;14.40;59.00
17080;DHT22;8655;57.106;-2.088;2024-01-11T12:25:41;14.40;59.00
17080;DHT22;8655;57.106;-2.088;2024-01-11T12:28:07;14.40;59.00
17080;DHT22;8655;57.106;-2.088;2024-01-11T12:30:33;14.40;59.00
17080;DHT22;8655;57.106;-2.088;2024-01-11T12:32:59;14.40;59.00
17080;DHT22;8655;57.106;-2.088;2024-01-11T12:35:27;14.40;59.00
17080;DHT22;8655;57.106;-2.088;2024-01-11T12:37:59;14.40;59.00
17080;DHT22;8655;57.106;-2.088;2024-01-11T12:40:26;14.30;58.90
17080;DHT22;8655;57.106;-2.088;2024-01-11T12:42:52;14.30;58.90
17080;DHT22;8655;57.106;-2.088;2024-01-11T12:45:21;14.30;58.90
17080;DHT22;8655;57.106;-2.088;2024-01-11T12:47:48;14.30;58.90
17080;DHT22;8655;57.106;-2.088;2024-01-11T12:50:14;14.30;58.90
17080;DHT22;8655;57.106;-2.088;2024-01-11T12:52:40;14.30;58.90
17080;DHT22;8655;57.106;-2.088;2024-01-11T12:55:08;14.30;58.90
17080;DHT22;8655;57.106;-2.088;2024-01-11T12:57:43;14.30;58.90
17080;DHT22;8655;57.106;-2.088;2024-01-11T13:00:13;14.30;58.90
17080;DHT22;8655;57.106;-2.088;2024-01-11T13:02:39;14.30;58.90
17080;DHT22;8655;57.106;-2.088;2024-01-11T13:05:06;14.20;58.80
17080;DHT22;8655;57.106;-2.088;2024-01-11T13:07:33;14.20;58.80
17080;DHT22;8655;57.106;-2.088;2024-01-11T13:09:59;14.20;58.80
17080;DHT22;8655;57.106;-2.088;2024-01-11T13:12:25;14.20;58.80
17080;DHT22;8655;57.106;-2.088;2024-01-11T13:14:51;14.20;58.80
17080;DHT22;8655;57.106;-2.088;2024-01-11T13:17:18;14.20;58.70
17080;DHT22;8655;57.106;-2.088;2024-01-11T13:19:44;14.20;58.70
17080;DHT22;8655;57.106;-2.088;2024-01-11T13:22:10;14.20;58.70
17080;DHT22;8655;57.106;-2.088;2024-01-11T13:24:36;14.20;58.70
17080;DHT22;8655;57.106;-2.088;2024-01-11T13:27:02;14.20;58.70
17080;DHT22;8655;57.106;-2.088;2024-01-11T13:29:28;14.20;58.70
17080;DHT22;8655;57.106;-2.088;2024-01-11T13:31:54;14.10;58.60
17080;DHT22;8655;57.106;-2.088;2024-01-11T13:34:19;14.10;58.60
17080;DHT22;8655;57.106;-2.088;2024-01-11T13:36:45;14.10;58.70
17080;DHT22;8655;57.106;-2.088;2024-01-11T13:39:11;14.10;58.70
17080;DHT22;8655;57.106;-2.088;2024-01-11T13:41:37;14.10;58.60
17080;DHT22;8655;57.106;-2.088;2024-01-11T13:44:02;14.10;58.60
17080;DHT22;8655;57.106;-2.088;2024-01-11T13:46:32;14.10;58.60
17080;DHT22;8655;57.106;-2.088;2024-01-11T13:48:58;14.10;58.60
17080;DHT22;8655;57.106;-2.088;2024-01-11T13:51:24;14.00;58.60
17080;DHT22;8655;57.106;-2.088;2024-01-11T13:53:49;14.00;58.60
17080;DHT22;8655;57.106;-2.088;2024-01-11T13:56:15;14.00;58.60
17080;DHT22;8655;57.106;-2.088;2024-01-11T13:58:41;14.00;58.50
17080;DHT22;8655;57.106;-2.088;2024-01-11T14:01:07;14.00;58.50
17080;DHT22;8655;57.106;-2.088;2024-01-11T14:03:36;14.00;58.60
17080;DHT22;8655;57.106;-2.088;2024-01-11T14:06:02;14.00;58.60
17080;DHT22;8655;57.106;-2.088;2024-01-11T14:08:28;14.00;58.60
17080;DHT22;8655;57.106;-2.088;2024-01-11T14:10:54;14.00;58.60
17080;DHT22;8655;57.106;-2.088;2024-01-11T14:13:20;14.00;58.60
17080;DHT22;8655;57.106;-2.088;2024-01-11T14:15:45;13.90;58.50
17080;DHT22;8655;57.106;-2.088;2024-01-11T14:18:13;14.00;58.60
17080;DHT22;8655;57.106;-2.088;2024-01-11T14:20:39;13.90;58.50
17080;DHT22;8655;57.106;-2.088;2024-01-11T14:23:05;13.90;58.50
17080;DHT22;8655;57.106;-2.088;2024-01-11T14:25:30;14.00;58.60
17080;DHT22;8655;57.106;-2.088;2024-01-11T14:27:56;13.90;58.50
17080;DHT22;8655;57.106;-2.088;2024-01-11T14:30:22;13.90;58.40
17080;DHT22;8655;57.106;-2.088;2024-01-11T14:32:52;13.90;58.40
17080;DHT22;8655;57.106;-2.088;2024-01-11T14:35:18;13.90;58.40
17080;DHT22;8655;57.106;-2.088;2024-01-11T14:37:44;13.90;58.40
17080;DHT22;8655;57.106;-2.088;2024-01-11T14:40:10;13.90;58.40
17080;DHT22;8655;57.106;-2.088;2024-01-11T14:42:36;13.90;58.40
17080;DHT22;8655;57.106;-2.088;2024-01-11T14:45:03;13.90;58.40
17080;DHT22;8655;57.106;-2.088;2024-01-11T14:47:35;13.90;58.40
17080;DHT22;8655;57.106;-2.088;2024-01-11T14:50:00;13.90;58.40
17080;DHT22;8655;57.106;-2.088;2024-01-11T14:52:26;13.90;58.40
17080;DHT22;8655;57.106;-2.088;2024-01-11T14:54:52;13.90;58.40
17080;DHT22;8655;57.106;-2.088;2024-01-11T14:57:18;13.90;58.50
17080;DHT22;8655;57.106;-2.088;2024-01-11T14:59:46;13.90;58.50
17080;DHT22;8655;57.106;-2.088;2024-01-11T15:02:11;13.90;58.50
17080;DHT22;8655;57.106;-2.088;2024-01-11T15:04:37;13.80;58.40
17080;DHT22;8655;57.106;-2.088;2024-01-11T15:07:04;13.90;58.40
17080;DHT22;8655;57.106;-2.088;2024-01-11T15:09:30;13.80;58.40
17080;DHT22;8655;57.106;-2.088;2024-01-11T15:11:56;13.80;58.40
17080;DHT22;8655;57.106;-2.088;2024-01-11T15:14:21;13.80;58.40
17080;DHT22;8655;57.106;-2.088;2024-01-11T15:16:47;13.80;58.40
17080;DHT22;8655;57.106;-2.088;2024-01-11T15:19:13;13.80;58.40
17080;DHT22;8655;57.106;-2.088;2024-01-11T15:21:39;13.80;58.40
17080;DHT22;8655;57.106;-2.088;2024-01-11T15:24:06;13.80;58.40
17080;DHT22;8655;57.106;-2.088;2024-01-11T15:26:32;13.80;58.40